Time;durP1;ratioP1;P1;durP2;ratioP2;P2;SDS_P1;SDS_P2;PMS_P1;PMS_P2;Temp;Humidity;BMP_temperature;BMP_pressure;BME280_temperature;BME280_humidity;BME280_pressure;Samples;Min_cycle;Max_cycle;Signal;HPM_P1;HPM_P2
2024/01/06 00:00:27;;;;;;;6.03;2.70;;;;;;;;;;4974952;28;20243;-88
2024/01/06 00:02:54;;;;;;;5.40;2.80;;;;;;;;;;4975548;28;20209;-88
2024/01/06 00:05:21;;;;;;;3.97;2.80;;;;;;;;;;4985930;28;20207;-88
2024/01/06 00:07:49;;;;;;;2.80;2.60;;;;;;;;;;4993526;28;20235;-86
2024/01/06 00:10:16;;;;;;;6.20;2.30;;;;;;;;;;4993314;28;20231;-85
2024/01/06 00:12:43;;;;;;;3.93;2.10;;;;;;;;;;4994881;28;20205;-92
2024/01/06 00:15:10;;;;;;;2.30;2.20;;;;;;;;;;4998525;28;20213;-91
2024/01/06 00:17:38;;;;;;;2.77;2.27;;;;;;;;;;4998838;28;20616;-91
2024/01/06 00:20:06;;;;;;;2.50;2.30;;;;;;;;;;4998112;28;20293;-90
2024/01/06 00:22:33;;;;;;;4.27;2.50;;;;;;;;;;4998324;28;20667;-91
2024/01/06 00:25:00;;;;;;;3.13;2.30;;;;;;;;;;4998600;28;20215;-91
2024/01/06 00:27:27;;;;;;;4.63;2.80;;;;;;;;;;4998019;28;20228;-91
2024/01/06 00:29:54;;;;;;;6.83;3.07;;;;;;;;;;4998496;28;20235;-90
2024/01/06 00:32:21;;;;;;;4.40;2.83;;;;;;;;;;4998128;28;20243;-90
2024/01/06 00:34:50;;;;;;;3.10;2.43;;;;;;;;;;4998337;28;20215;-90
2024/01/06 00:37:18;;;;;;;4.37;2.70;;;;;;;;;;4998434;28;20238;-91
2024/01/06 00:39:45;;;;;;;2.90;2.43;;;;;;;;;;4998956;28;20230;-91
2024/01/06 00:42:12;;;;;;;3.50;2.63;;;;;;;;;;4997371;28;20232;-91
2024/01/06 00:44:39;;;;;;;2.83;2.57;;;;;;;;;;4998022;28;20207;-91
2024/01/06 00:47:06;;;;;;;6.67;2.97;;;;;;;;;;4997485;28;20271;-91
2024/01/06 00:49:33;;;;;;;6.57;3.63;;;;;;;;;;4997577;28;20227;-91
2024/01/06 00:52:01;;;;;;;3.80;2.77;;;;;;;;;;4996841;28;20230;-90
2024/01/06 00:54:28;;;;;;;7.23;3.53;;;;;;;;;;4997439;28;20579;-91
2024/01/06 00:56:55;;;;;;;5.77;2.77;;;;;;;;;;4996500;28;20235;-91
2024/01/06 00:59:22;;;;;;;5.03;3.10;;;;;;;;;;4997652;28;20596;-91
2024/01/06 01:01:49;;;;;;;2.77;2.53;;;;;;;;;;4997150;28;20243;-90
2024/01/06 01:04:16;;;;;;;3.30;2.27;;;;;;;;;;4997450;28;20207;-90
2024/01/06 01:06:43;;;;;;;6.80;3.33;;;;;;;;;;4996496;28;20239;-91
2024/01/06 01:09:13;;;;;;;4.73;2.43;;;;;;;;;;4997082;28;20284;-90
2024/01/06 01:11:40;;;;;;;5.97;2.47;;;;;;;;;;4996565;28;20262;-91
2024/01/06 01:14:07;;;;;;;3.23;2.77;;;;;;;;;;4997004;28;20203;-91
2024/01/06 01:16:34;;;;;;;2.80;2.40;;;;;;;;;;4996435;28;20227;-91
2024/01/06 01:19:02;;;;;;;3.07;2.60;;;;;;;;;;4997022;28;20224;-91
2024/01/06 01:21:29;;;;;;;11.50;3.23;;;;;;;;;;4996930;28;20242;-91
2024/01/06 01:23:56;;;;;;;4.03;3.10;;;;;;;;;;4996978;28;20207;-91
2024/01/06 01:26:24;;;;;;;3.33;2.93;;;;;;;;;;4996159;28;20290;-91
2024/01/06 01:28:51;;;;;;;2.80;2.60;;;;;;;;;;4996642;28;20282;-91
2024/01/06 01:31:18;;;;;;;2.63;2.43;;;;;;;;;;4996544;28;20247;-91
2024/01/06 01:33:45;;;;;;;2.97;2.77;;;;;;;;;;4996717;28;20207;-91
2024/01/06 01:36:12;;;;;;;4.53;3.10;;;;;;;;;;4996391;28;20246;-90
2024/01/06 01:38:39;;;;;;;2.53;2.43;;;;;;;;;;4996783;28;20228;-91
2024/01/06 01:41:06;;;;;;;4.60;2.53;;;;;;;;;;4995966;28;20246;-90
2024/01/06 01:43:35;;;;;;;6.87;2.60;;;;;;;;;;4996319;28;20211;-91
2024/01/06 01:46:02;;;;;;;2.97;2.57;;;;;;;;;;4995966;28;20292;-91
2024/01/06 01:48:29;;;;;;;4.20;2.60;;;;;;;;;;4996673;28;20398;-91
2024/01/06 01:50:56;;;;;;;4.10;2.23;;;;;;;;;;4996046;28;20246;-91
2024/01/06 01:53:26;;;;;;;8.37;2.60;;;;;;;;;;4996534;28;20249;-90
2024/01/06 01:55:53;;;;;;;3.07;2.37;;;;;;;;;;4996609;28;20253;-90
2024/01/06 01:58:20;;;;;;;2.60;2.40;;;;;;;;;;5004869;28;20199;-90
2024/01/06 02:00:49;;;;;;;2.77;2.40;;;;;;;;;;4998764;28;20245;-91
2024/01/06 02:03:16;;;;;;;5.40;2.40;;;;;;;;;;4996215;28;20223;-90
2024/01/06 02:05:43;;;;;;;4.47;2.50;;;;;;;;;;4994823;28;20239;-91
2024/01/06 02:08:10;;;;;;;2.47;1.93;;;;;;;;;;4992262;28;20269;-91
2024/01/06 02:10:37;;;;;;;4.23;2.40;;;;;;;;;;4995809;28;20239;-91
2024/01/06 02:13:11;;;;;;;2.57;2.37;;;;;;;;;;4996107;28;20219;-91
2024/01/06 02:15:38;;;;;;;5.17;2.50;;;;;;;;;;4996005;28;20236;-90
2024/01/06 02:18:16;;;;;;;2.53;2.30;;;;;;;;;;4995885;28;20204;-91
2024/01/06 02:20:44;;;;;;;2.10;2.00;;;;;;;;;;4995525;28;20287;-91
2024/01/06 02:23:13;;;;;;;2.43;2.33;;;;;;;;;;4995741;28;20207;-91
2024/01/06 02:25:40;;;;;;;2.37;2.23;;;;;;;;;;4995256;28;20269;-90
2024/01/06 02:28:07;;;;;;;9.20;2.87;;;;;;;;;;4995814;28;20293;-90
2024/01/06 02:30:34;;;;;;;3.83;2.50;;;;;;;;;;4995431;28;20245;-91
2024/01/06 02:33:01;;;;;;;3.37;2.27;;;;;;;;;;4995595;28;20237;-91
2024/01/06 02:35:28;;;;;;;4.57;2.63;;;;;;;;;;4994688;28;20239;-90
2024/01/06 02:37:55;;;;;;;5.23;2.53;;;;;;;;;;4995534;28;20204;-90
2024/01/06 02:40:23;;;;;;;2.60;2.30;;;;;;;;;;4995116;28;20717;-91
2024/01/06 02:42:50;;;;;;;2.20;2.10;;;;;;;;;;4995814;28;20196;-90
2024/01/06 02:45:17;;;;;;;2.37;2.20;;;;;;;;;;4994619;28;20681;-91
2024/01/06 02:47:44;;;;;;;2.87;2.40;;;;;;;;;;4995362;28;20228;-90
2024/01/06 02:50:11;;;;;;;2.33;2.23;;;;;;;;;;4994360;28;20708;-90
2024/01/06 02:52:38;;;;;;;2.53;2.33;;;;;;;;;;4995500;28;20215;-91
2024/01/06 02:55:05;;;;;;;2.30;2.20;;;;;;;;;;4994428;28;20712;-90
2024/01/06 02:57:35;;;;;;;2.80;2.60;;;;;;;;;;4995144;28;20207;-90
2024/01/06 03:00:02;;;;;;;2.17;1.93;;;;;;;;;;4994774;28;20319;-85
2024/01/06 03:02:29;;;;;;;2.50;2.30;;;;;;;;;;4995013;28;20318;-90
2024/01/06 03:04:57;;;;;;;4.93;2.73;;;;;;;;;;4994967;28;20774;-91
2024/01/06 03:07:24;;;;;;;2.23;2.13;;;;;;;;;;4994190;28;20269;-90
2024/01/06 03:09:51;;;;;;;2.97;2.17;;;;;;;;;;4994883;28;20250;-91
2024/01/06 03:12:18;;;;;;;2.53;2.37;;;;;;;;;;4994495;28;20243;-91
2024/01/06 03:14:46;;;;;;;7.73;3.03;;;;;;;;;;4994678;28;20267;-91
2024/01/06 03:17:13;;;;;;;3.40;3.10;;;;;;;;;;4994485;28;20239;-91
2024/01/06 03:19:40;;;;;;;5.77;2.77;;;;;;;;;;4994941;28;20234;-91
2024/01/06 03:22:07;;;;;;;2.50;2.40;;;;;;;;;;4994558;28;20240;-91
2024/01/06 03:24:34;;;;;;;6.67;2.70;;;;;;;;;;4994529;28;20611;-91
2024/01/06 03:27:01;;;;;;;3.53;2.60;;;;;;;;;;4993888;28;20246;-90
2024/01/06 03:29:28;;;;;;;3.27;2.93;;;;;;;;;;4975345;28;20223;-91
2024/01/06 03:32:14;;;;;;;4.40;2.97;;;;;;;;;;4975041;28;20604;-90
2024/01/06 03:34:43;;;;;;;3.23;2.57;;;;;;;;;;4992453;28;20211;-90
2024/01/06 03:37:10;;;;;;;6.30;2.60;;;;;;;;;;4993881;28;20247;-90
2024/01/06 03:39:37;;;;;;;4.73;2.20;;;;;;;;;;4994375;28;20234;-91
2024/01/06 03:42:04;;;;;;;2.33;2.23;;;;;;;;;;4993826;28;20644;-91
2024/01/06 03:44:33;;;;;;;3.27;2.40;;;;;;;;;;4994330;28;20558;-91
2024/01/06 03:47:00;;;;;;;5.30;2.27;;;;;;;;;;4993292;28;20244;-91
2024/01/06 03:49:28;;;;;;;2.57;2.37;;;;;;;;;;4994368;28;20238;-90
2024/01/06 03:51:56;;;;;;;3.10;2.33;;;;;;;;;;4994974;28;20243;-90
2024/01/06 03:54:23;;;;;;;4.40;2.40;;;;;;;;;;4998659;28;20217;-91
2024/01/06 03:56:50;;;;;;;2.60;2.27;;;;;;;;;;4994463;28;20251;-91
2024/01/06 03:59:17;;;;;;;6.93;2.67;;;;;;;;;;4994858;28;20263;-91
2024/01/06 04:01:44;;;;;;;5.07;2.63;;;;;;;;;;4993855;28;20243;-92
2024/01/06 04:04:11;;;;;;;2.63;2.40;;;;;;;;;;4994580;28;20208;-90
2024/01/06 04:06:38;;;;;;;2.60;2.40;;;;;;;;;;4988590;28;20231;-89
2024/01/06 04:09:07;;;;;;;2.37;2.13;;;;;;;;;;4993593;28;20294;-90
2024/01/06 04:11:34;;;;;;;4.83;2.30;;;;;;;;;;4994422;28;20895;-91
2024/01/06 04:14:01;;;;;;;2.10;2.00;;;;;;;;;;4994721;28;20211;-91
2024/01/06 04:16:28;;;;;;;2.20;2.10;;;;;;;;;;4993811;28;20293;-90
2024/01/06 04:18:55;;;;;;;3.07;2.27;;;;;;;;;;4994491;28;20598;-91
2024/01/06 04:21:22;;;;;;;2.30;2.20;;;;;;;;;;4986662;28;20610;-91
2024/01/06 04:23:49;;;;;;;3.23;2.60;;;;;;;;;;4993971;28;20721;-91
2024/01/06 04:26:17;;;;;;;3.17;2.17;;;;;;;;;;4993598;28;20236;-91
2024/01/06 04:28:44;;;;;;;6.80;2.60;;;;;;;;;;4993672;28;20231;-91
2024/01/06 04:31:11;;;;;;;2.50;2.20;;;;;;;;;;4993366;28;20741;-90
2024/01/06 04:33:40;;;;;;;4.53;2.23;;;;;;;;;;4993241;28;20215;-91
2024/01/06 04:36:07;;;;;;;5.07;2.30;;;;;;;;;;4993217;28;20279;-91
2024/01/06 04:38:34;;;;;;;3.43;2.23;;;;;;;;;;4994323;28;20239;-91
2024/01/06 04:41:01;;;;;;;3.50;2.23;;;;;;;;;;4993363;28;20722;-91
2024/01/06 04:43:29;;;;;;;4.80;2.70;;;;;;;;;;4994047;28;20235;-91
2024/01/06 04:45:57;;;;;;;4.43;2.67;;;;;;;;;;4993377;28;20247;-91
2024/01/06 04:48:24;;;;;;;3.20;2.30;;;;;;;;;;4993689;28;20235;-91
2024/01/06 04:50:51;;;;;;;3.53;2.37;;;;;;;;;;4993323;28;20243;-90
2024/01/06 04:53:19;;;;;;;2.47;2.27;;;;;;;;;;4993893;28;20262;-90
2024/01/06 04:55:46;;;;;;;3.00;2.67;;;;;;;;;;4993326;28;20239;-90
2024/01/06 04:58:13;;;;;;;4.20;2.67;;;;;;;;;;4993694;28;20215;-91
2024/01/06 05:00:41;;;;;;;4.03;3.07;;;;;;;;;;4996141;28;20286;-91
2024/01/06 05:03:08;;;;;;;3.37;2.63;;;;;;;;;;4997123;28;20223;-91
2024/01/06 05:05:35;;;;;;;4.27;3.40;;;;;;;;;;4996627;28;20251;-91
2024/01/06 05:08:03;;;;;;;6.60;3.87;;;;;;;;;;4997754;28;20236;-90
2024/01/06 05:10:30;;;;;;;5.90;4.00;;;;;;;;;;4996690;28;20240;-90
2024/01/06 05:12:57;;;;;;;9.73;4.50;;;;;;;;;;4997267;28;20211;-90
2024/01/06 05:15:24;;;;;;;5.43;2.90;;;;;;;;;;4996461;28;20252;-90
2024/01/06 05:17:52;;;;;;;8.33;3.17;;;;;;;;;;4993178;28;20228;-91
2024/01/06 05:20:19;;;;;;;5.53;3.13;;;;;;;;;;4996391;28;20227;-90
2024/01/06 05:22:46;;;;;;;2.73;2.53;;;;;;;;;;4997005;28;20619;-90
2024/01/06 05:25:13;;;;;;;3.53;2.50;;;;;;;;;;4996173;28;20204;-91
2024/01/06 05:27:40;;;;;;;3.50;3.17;;;;;;;;;;4996809;28;20204;-90
2024/01/06 05:30:08;;;;;;;2.70;2.50;;;;;;;;;;4996838;28;20254;-90
2024/01/06 05:32:35;;;;;;;3.20;2.90;;;;;;;;;;4996977;28;20652;-90
2024/01/06 05:35:03;;;;;;;3.80;2.53;;;;;;;;;;4996604;28;20277;-91
2024/01/06 05:37:30;;;;;;;2.40;2.30;;;;;;;;;;4996568;28;20310;-90
2024/01/06 05:40:01;;;;;;;3.23;2.90;;;;;;;;;;4996088;28;20702;-90
2024/01/06 05:42:27;;;;;;;4.87;3.50;;;;;;;;;;4996037;28;20241;-90
2024/01/06 05:44:54;;;;;;;2.87;2.43;;;;;;;;;;4996397;28;20212;-90
2024/01/06 05:47:21;;;;;;;2.63;2.43;;;;;;;;;;4991265;28;20227;-90
2024/01/06 05:49:48;;;;;;;3.50;2.87;;;;;;;;;;5000861;28;20245;-90
2024/01/06 05:52:17;;;;;;;6.50;3.50;;;;;;;;;;4996215;28;20281;-90
2024/01/06 05:54:45;;;;;;;5.87;2.83;;;;;;;;;;4996624;28;20208;-91
2024/01/06 05:57:12;;;;;;;3.07;2.80;;;;;;;;;;4995542;28;20753;-91
2024/01/06 05:59:40;;;;;;;3.23;2.90;;;;;;;;;;4995968;28;20262;-90
2024/01/06 06:02:07;;;;;;;6.97;2.90;;;;;;;;;;4995648;28;20246;-90
2024/01/06 06:04:34;;;;;;;8.10;2.57;;;;;;;;;;4996637;28;20208;-90
2024/01/06 06:07:02;;;;;;;2.97;2.67;;;;;;;;;;4995691;28;20240;-90
2024/01/06 06:09:30;;;;;;;10.07;5.73;;;;;;;;;;4995717;28;20255;-90
2024/01/06 06:11:57;;;;;;;3.63;3.20;;;;;;;;;;4994749;28;20268;-90
2024/01/06 06:14:24;;;;;;;54.17;19.67;;;;;;;;;;4989632;28;20204;-90
2024/01/06 06:16:51;;;;;;;2.93;2.73;;;;;;;;;;4995843;28;20240;-90
2024/01/06 06:19:18;;;;;;;12.83;6.17;;;;;;;;;;4995423;28;20765;-90
2024/01/06 06:21:45;;;;;;;18.77;11.00;;;;;;;;;;4995686;28;20726;-90
2024/01/06 06:24:13;;;;;;;13.70;8.93;;;;;;;;;;4995936;28;20216;-90
2024/01/06 06:26:41;;;;;;;4.83;3.47;;;;;;;;;;4995146;28;20232;-91
2024/01/06 06:29:08;;;;;;;3.50;3.13;;;;;;;;;;4995333;28;20635;-90
2024/01/06 06:31:35;;;;;;;3.57;3.03;;;;;;;;;;4994548;28;20326;-87
2024/01/06 06:34:02;;;;;;;3.63;2.93;;;;;;;;;;4994865;28;20204;-87
2024/01/06 06:36:30;;;;;;;3.57;3.00;;;;;;;;;;4994054;28;20623;-87
2024/01/06 06:38:58;;;;;;;3.50;3.20;;;;;;;;;;4995375;28;20315;-87
2024/01/06 06:41:25;;;;;;;4.93;3.10;;;;;;;;;;4994146;28;20223;-87
2024/01/06 06:43:53;;;;;;;4.67;3.77;;;;;;;;;;4995220;28;20213;-87
2024/01/06 06:46:20;;;;;;;5.37;2.90;;;;;;;;;;4994016;28;20737;-87
2024/01/06 06:48:47;;;;;;;2.90;2.63;;;;;;;;;;4994700;28;20240;-87
2024/01/06 06:51:14;;;;;;;2.70;2.50;;;;;;;;;;4994114;28;20268;-87
2024/01/06 06:53:41;;;;;;;5.07;3.13;;;;;;;;;;4994670;28;20216;-87
2024/01/06 06:56:09;;;;;;;3.47;3.07;;;;;;;;;;4994033;28;20246;-87
2024/01/06 06:58:36;;;;;;;2.17;2.07;;;;;;;;;;4994676;28;20224;-89
2024/01/06 07:01:05;;;;;;;3.57;2.67;;;;;;;;;;4994687;28;20235;-91
2024/01/06 07:03:32;;;;;;;3.97;3.47;;;;;;;;;;4990482;28;20236;-92
2024/01/06 07:05:59;;;;;;;3.47;2.83;;;;;;;;;;4994152;28;20240;-89
2024/01/06 07:08:26;;;;;;;2.67;2.43;;;;;;;;;;4988095;28;20275;-89
2024/01/06 07:10:53;;;;;;;4.03;3.17;;;;;;;;;;4994027;28;20646;-89
2024/01/06 07:13:20;;;;;;;3.77;3.03;;;;;;;;;;4995024;28;20262;-90
2024/01/06 07:15:47;;;;;;;2.57;2.37;;;;;;;;;;4994187;28;20291;-89
2024/01/06 07:18:26;;;;;;;3.43;2.63;;;;;;;;;;4994457;28;20675;-86
2024/01/06 07:20:55;;;;;;;6.57;3.13;;;;;;;;;;4993600;28;20243;-86
2024/01/06 07:23:30;;;;;;;6.20;3.40;;;;;;;;;;4994169;28;20658;-89
2024/01/06 07:25:58;;;;;;;4.00;3.43;;;;;;;;;;4993048;28;20230;-84
2024/01/06 07:28:25;;;;;;;3.77;3.30;;;;;;;;;;4992961;28;20282;-84
2024/01/06 07:30:52;;;;;;;3.23;3.00;;;;;;;;;;4992686;28;20248;-84
2024/01/06 07:33:19;;;;;;;3.33;3.03;;;;;;;;;;4992744;28;20204;-83
2024/01/06 07:35:46;;;;;;;5.60;3.53;;;;;;;;;;4992476;28;20232;-84
2024/01/06 07:38:16;;;;;;;7.80;3.60;;;;;;;;;;4992787;28;20704;-83
2024/01/06 07:40:44;;;;;;;3.77;3.30;;;;;;;;;;4992250;28;20234;-83
2024/01/06 07:43:11;;;;;;;7.73;3.00;;;;;;;;;;4992723;28;20682;-85
2024/01/06 07:45:38;;;;;;;3.67;3.37;;;;;;;;;;4992293;28;20231;-85
2024/01/06 07:48:06;;;;;;;4.07;3.63;;;;;;;;;;4990308;28;20204;-86
2024/01/06 07:50:33;;;;;;;4.87;3.80;;;;;;;;;;4992326;28;20235;-84
2024/01/06 07:53:00;;;;;;;6.13;3.43;;;;;;;;;;4993005;28;20658;-84
2024/01/06 07:55:29;;;;;;;5.60;3.60;;;;;;;;;;4991827;28;20230;-84
2024/01/06 07:57:56;;;;;;;4.20;3.77;;;;;;;;;;4993292;28;20238;-86
2024/01/06 08:00:23;;;;;;;4.20;3.80;;;;;;;;;;4993060;28;20294;-88
2024/01/06 08:02:50;;;;;;;6.50;4.50;;;;;;;;;;4993569;28;20307;-84
2024/01/06 08:05:17;;;;;;;3.87;3.57;;;;;;;;;;4992406;28;20348;-84
2024/01/06 08:07:44;;;;;;;4.83;4.33;;;;;;;;;;4989514;28;20264;-84
2024/01/06 08:10:11;;;;;;;5.13;3.87;;;;;;;;;;4989038;28;20608;-84
2024/01/06 08:12:39;;;;;;;5.50;3.97;;;;;;;;;;4992550;28;20219;-84
2024/01/06 08:15:08;;;;;;;5.00;3.90;;;;;;;;;;4988923;28;20204;-83
2024/01/06 08:17:35;;;;;;;5.30;4.10;;;;;;;;;;4992154;28;20624;-84
2024/01/06 08:20:03;;;;;;;4.30;3.53;;;;;;;;;;4991945;28;20740;-83
2024/01/06 08:22:30;;;;;;;5.13;4.27;;;;;;;;;;4985116;28;20236;-83
2024/01/06 08:24:57;;;;;;;10.77;3.90;;;;;;;;;;4992154;28;20212;-83
2024/01/06 08:27:24;;;;;;;12.93;6.33;;;;;;;;;;4991543;28;20242;-84
2024/01/06 08:29:52;;;;;;;12.67;6.00;;;;;;;;;;4992367;28;20292;-84
2024/01/06 08:32:19;;;;;;;6.27;4.93;;;;;;;;;;4991933;28;20238;-83
2024/01/06 08:34:47;;;;;;;5.50;4.63;;;;;;;;;;4993977;28;20216;-83
2024/01/06 08:37:14;;;;;;;5.83;4.03;;;;;;;;;;4995282;28;20239;-83
2024/01/06 08:39:42;;;;;;;4.80;4.50;;;;;;;;;;4995812;28;20243;-84
2024/01/06 08:42:09;;;;;;;4.30;3.77;;;;;;;;;;4995424;28;20243;-83
2024/01/06 08:44:36;;;;;;;4.60;3.83;;;;;;;;;;4996123;28;20219;-83
2024/01/06 08:47:04;;;;;;;3.90;3.50;;;;;;;;;;4995417;28;20601;-83
2024/01/06 08:49:31;;;;;;;3.70;3.40;;;;;;;;;;4987303;28;20253;-83
2024/01/06 08:52:00;;;;;;;4.43;3.30;;;;;;;;;;4990515;28;20271;-84
2024/01/06 08:54:27;;;;;;;4.37;3.97;;;;;;;;;;4995441;28;20216;-83
2024/01/06 08:56:54;;;;;;;5.00;3.77;;;;;;;;;;4995158;28;20238;-83
2024/01/06 08:59:21;;;;;;;4.47;3.90;;;;;;;;;;4995840;28;20228;-83
2024/01/06 09:01:48;;;;;;;5.03;4.00;;;;;;;;;;4995413;28;20243;-84
2024/01/06 09:04:16;;;;;;;5.13;4.20;;;;;;;;;;4995387;28;20640;-83
2024/01/06 09:06:43;;;;;;;3.87;3.43;;;;;;;;;;4994913;28;20236;-84
2024/01/06 09:09:10;;;;;;;4.37;3.80;;;;;;;;;;4997155;28;20235;-86
2024/01/06 09:11:37;;;;;;;6.67;4.10;;;;;;;;;;4996572;28;20239;-89
2024/01/06 09:14:04;;;;;;;5.97;3.70;;;;;;;;;;4998161;28;20208;-89
2024/01/06 09:16:31;;;;;;;4.70;3.70;;;;;;;;;;4996608;28;20309;-87
2024/01/06 09:18:58;;;;;;;5.37;4.87;;;;;;;;;;4996992;28;20238;-88
2024/01/06 09:21:27;;;;;;;7.17;4.03;;;;;;;;;;4996436;28;20286;-88
2024/01/06 09:23:54;;;;;;;10.63;4.70;;;;;;;;;;4999477;28;20212;-88
2024/01/06 09:26:21;;;;;;;8.87;4.43;;;;;;;;;;4996101;28;20242;-89
2024/01/06 09:28:48;;;;;;;3.90;3.60;;;;;;;;;;4996822;28;20235;-88
2024/01/06 09:31:15;;;;;;;4.13;3.70;;;;;;;;;;4996445;28;20675;-88
2024/01/06 09:33:42;;;;;;;5.83;3.70;;;;;;;;;;4998147;28;20219;-88
2024/01/06 09:36:12;;;;;;;5.70;4.20;;;;;;;;;;4997672;28;20236;-88
2024/01/06 09:38:40;;;;;;;3.60;3.30;;;;;;;;;;4997062;28;20683;-88
2024/01/06 09:41:07;;;;;;;6.17;3.70;;;;;;;;;;4996314;28;20235;-89
2024/01/06 09:43:34;;;;;;;6.07;4.27;;;;;;;;;;4988570;28;20212;-88
2024/01/06 09:46:07;;;;;;;6.70;4.13;;;;;;;;;;4995921;28;20243;-88
2024/01/06 09:48:37;;;;;;;4.53;3.63;;;;;;;;;;4996722;28;20351;-87
2024/01/06 09:51:04;;;;;;;5.00;4.50;;;;;;;;;;4995749;28;20239;-88
2024/01/06 09:53:36;;;;;;;12.13;4.83;;;;;;;;;;4995799;28;20601;-88
2024/01/06 09:56:05;;;;;;;9.47;4.70;;;;;;;;;;4995192;28;20228;-88
2024/01/06 09:58:34;;;;;;;8.10;6.37;;;;;;;;;;4998819;28;20228;-88
2024/01/06 10:01:02;;;;;;;4.40;4.00;;;;;;;;;;4995167;28;20236;-88
2024/01/06 10:03:29;;;;;;;6.77;4.43;;;;;;;;;;4995703;28;20675;-87
2024/01/06 10:06:00;;;;;;;5.97;4.27;;;;;;;;;;4995056;28;20244;-87
2024/01/06 10:08:27;;;;;;;5.33;4.07;;;;;;;;;;4995542;28;20216;-87
2024/01/06 10:10:59;;;;;;;4.33;3.93;;;;;;;;;;4990182;28;20235;-87
2024/01/06 10:13:28;;;;;;;4.47;4.03;;;;;;;;;;4997526;28;20203;-87
2024/01/06 10:15:55;;;;;;;4.77;4.03;;;;;;;;;;4994501;28;20290;-85
2024/01/06 10:18:22;;;;;;;7.73;4.73;;;;;;;;;;4995100;28;20220;-87
2024/01/06 10:20:49;;;;;;;5.40;4.57;;;;;;;;;;4995271;28;20532;-86
2024/01/06 10:23:16;;;;;;;6.37;4.00;;;;;;;;;;4994478;28;20219;-84
2024/01/06 10:25:43;;;;;;;6.00;4.27;;;;;;;;;;4994145;28;20242;-84
2024/01/06 10:28:13;;;;;;;5.27;4.37;;;;;;;;;;4994479;28;20670;-84
2024/01/06 10:30:43;;;;;;;5.93;3.77;;;;;;;;;;4986610;28;20236;-84
2024/01/06 10:33:11;;;;;;;5.63;4.90;;;;;;;;;;4994483;28;20306;-85
2024/01/06 10:35:38;;;;;;;6.27;4.83;;;;;;;;;;4986225;28;20314;-84
2024/01/06 10:38:06;;;;;;;6.73;5.47;;;;;;;;;;4994342;28;20279;-86
2024/01/06 10:40:33;;;;;;;4.77;4.30;;;;;;;;;;4993429;28;20250;-84
2024/01/06 10:43:01;;;;;;;5.17;4.50;;;;;;;;;;4994567;28;20641;-87
2024/01/06 10:45:29;;;;;;;4.73;4.33;;;;;;;;;;4993850;28;20285;-85
2024/01/06 10:47:58;;;;;;;4.17;3.83;;;;;;;;;;4994138;28;20544;-84
2024/01/06 10:50:25;;;;;;;6.43;4.23;;;;;;;;;;4993828;28;20243;-85
2024/01/06 10:52:53;;;;;;;6.93;4.93;;;;;;;;;;4994267;28;20567;-86
2024/01/06 10:55:21;;;;;;;6.53;4.47;;;;;;;;;;4993337;28;20208;-84
2024/01/06 10:57:51;;;;;;;4.50;3.67;;;;;;;;;;4993666;28;20208;-84
2024/01/06 11:00:18;;;;;;;4.67;4.27;;;;;;;;;;4993361;28;20227;-84
2024/01/06 11:02:46;;;;;;;5.13;3.83;;;;;;;;;;4994395;28;20204;-86
2024/01/06 11:05:15;;;;;;;5.73;3.97;;;;;;;;;;4993908;28;20212;-85
2024/01/06 11:07:42;;;;;;;4.37;3.97;;;;;;;;;;4978144;28;20579;-84
2024/01/06 11:10:12;;;;;;;5.30;4.13;;;;;;;;;;4993334;28;20250;-85
2024/01/06 11:12:39;;;;;;;5.57;4.60;;;;;;;;;;4989390;28;20600;-86
2024/01/06 11:15:06;;;;;;;7.13;4.37;;;;;;;;;;4993287;28;20223;-84
2024/01/06 11:17:53;;;;;;;6.87;4.37;;;;;;;;;;4993591;28;20239;-85
2024/01/06 11:20:21;;;;;;;4.57;3.97;;;;;;;;;;4993179;28;20319;-85
2024/01/06 11:22:49;;;;;;;3.90;3.57;;;;;;;;;;4993810;28;20243;-85
2024/01/06 11:25:19;;;;;;;4.73;3.70;;;;;;;;;;4992767;28;20628;-84
2024/01/06 11:27:47;;;;;;;6.47;4.10;;;;;;;;;;4993419;28;20247;-86
2024/01/06 11:30:21;;;;;;;4.57;4.17;;;;;;;;;;4993560;28;20236;-88
2024/01/06 11:32:48;;;;;;;4.23;3.93;;;;;;;;;;4978952;28;20208;-92
2024/01/06 11:35:17;;;;;;;4.77;4.07;;;;;;;;;;4994066;28;20216;-89
2024/01/06 11:37:56;;;;;;;5.60;3.97;;;;;;;;;;4994540;28;20216;-91
2024/01/06 11:40:24;;;;;;;4.10;3.70;;;;;;;;;;4993678;28;20259;-89
2024/01/06 11:42:58;;;;;;;3.93;3.60;;;;;;;;;;4994336;28;20751;-90
2024/01/06 11:45:26;;;;;;;3.90;3.50;;;;;;;;;;4993278;28;20235;-86
2024/01/06 11:47:58;;;;;;;5.50;3.97;;;;;;;;;;4993742;28;20224;-89
2024/01/06 11:50:26;;;;;;;4.20;3.80;;;;;;;;;;4990079;28;20343;-88
2024/01/06 11:52:53;;;;;;;5.90;4.30;;;;;;;;;;4989908;28;20757;-88
2024/01/06 11:55:27;;;;;;;7.20;4.80;;;;;;;;;;4993461;28;20208;-87
2024/01/06 11:57:56;;;;;;;5.83;4.33;;;;;;;;;;4993139;28;20298;-88
2024/01/06 12:00:23;;;;;;;5.77;3.70;;;;;;;;;;4993147;28;20342;-88
2024/01/06 12:02:50;;;;;;;4.23;3.83;;;;;;;;;;4994028;28;20234;-88
2024/01/06 12:05:17;;;;;;;5.83;3.80;;;;;;;;;;4992986;28;20670;-87
2024/01/06 12:07:45;;;;;;;6.53;3.93;;;;;;;;;;4993946;28;20262;-89
2024/01/06 12:10:14;;;;;;;9.43;4.23;;;;;;;;;;4996114;28;20243;-88
2024/01/06 12:12:42;;;;;;;4.93;3.93;;;;;;;;;;4997868;28;20687;-88
2024/01/06 12:15:09;;;;;;;5.80;4.40;;;;;;;;;;4993730;28;20212;-88
2024/01/06 12:17:37;;;;;;;5.00;4.10;;;;;;;;;;4991483;28;20319;-87
2024/01/06 12:20:04;;;;;;;5.10;4.10;;;;;;;;;;4994859;28;20656;-87
2024/01/06 12:22:31;;;;;;;4.13;3.80;;;;;;;;;;4997480;28;20274;-88
2024/01/06 12:25:00;;;;;;;5.43;3.93;;;;;;;;;;4997289;28;20658;-88
2024/01/06 12:27:27;;;;;;;4.73;4.23;;;;;;;;;;4996699;28;20259;-88
2024/01/06 12:29:55;;;;;;;4.60;3.77;;;;;;;;;;4997083;28;20278;-89
2024/01/06 12:32:22;;;;;;;4.10;3.80;;;;;;;;;;4997033;28;20240;-89
2024/01/06 12:34:50;;;;;;;5.17;4.10;;;;;;;;;;4997223;28;20211;-88
2024/01/06 12:37:18;;;;;;;6.27;4.10;;;;;;;;;;4996718;28;20242;-88
2024/01/06 12:39:45;;;;;;;5.47;3.93;;;;;;;;;;4989123;28;20231;-88
2024/01/06 12:42:12;;;;;;;4.83;3.93;;;;;;;;;;4996278;28;20255;-88
2024/01/06 12:44:39;;;;;;;5.27;4.00;;;;;;;;;;4997038;28;20219;-88
2024/01/06 12:47:08;;;;;;;6.60;4.13;;;;;;;;;;4996480;28;20619;-88
2024/01/06 12:49:42;;;;;;;7.20;4.50;;;;;;;;;;4996770;28;20243;-88
2024/01/06 12:52:09;;;;;;;5.73;4.37;;;;;;;;;;4996487;28;20318;-88
2024/01/06 12:54:36;;;;;;;5.57;3.67;;;;;;;;;;4996947;28;20211;-88
2024/01/06 12:57:03;;;;;;;4.87;3.73;;;;;;;;;;4996278;28;20235;-88
2024/01/06 12:59:31;;;;;;;4.97;3.60;;;;;;;;;;4996384;28;20773;-88
2024/01/06 13:01:58;;;;;;;3.83;3.43;;;;;;;;;;4996180;28;20315;-88
2024/01/06 13:04:27;;;;;;;3.73;3.43;;;;;;;;;;4996177;28;20263;-88
2024/01/06 13:06:54;;;;;;;3.57;3.27;;;;;;;;;;4995917;28;20231;-88
2024/01/06 13:09:27;;;;;;;4.43;3.30;;;;;;;;;;4996599;28;20235;-89
2024/01/06 13:11:55;;;;;;;6.43;3.80;;;;;;;;;;4996617;28;20235;-88
2024/01/06 13:14:23;;;;;;;3.60;3.30;;;;;;;;;;4996712;28;20212;-88
2024/01/06 13:16:50;;;;;;;4.97;3.40;;;;;;;;;;4995714;28;20718;-88
2024/01/06 13:19:17;;;;;;;3.90;3.50;;;;;;;;;;4996291;28;20244;-88
2024/01/06 13:21:45;;;;;;;4.53;3.50;;;;;;;;;;4995631;28;20232;-88
2024/01/06 13:24:12;;;;;;;3.40;3.10;;;;;;;;;;4996433;28;20212;-88
2024/01/06 13:26:39;;;;;;;6.63;3.87;;;;;;;;;;4996079;28;20232;-89
2024/01/06 13:29:06;;;;;;;3.70;3.40;;;;;;;;;;4992284;28;20238;-89
2024/01/06 13:31:33;;;;;;;3.97;3.53;;;;;;;;;;4995801;28;20637;-88
2024/01/06 13:34:00;;;;;;;4.23;3.83;;;;;;;;;;4996192;28;20243;-88
2024/01/06 13:36:27;;;;;;;4.80;3.90;;;;;;;;;;4995301;28;20281;-88
2024/01/06 13:38:56;;;;;;;4.50;3.80;;;;;;;;;;4996286;28;20438;-85
2024/01/06 13:41:23;;;;;;;4.10;3.77;;;;;;;;;;4995402;28;20235;-89
2024/01/06 13:43:50;;;;;;;4.27;3.87;;;;;;;;;;4995955;28;20208;-89
2024/01/06 13:46:17;;;;;;;3.97;3.67;;;;;;;;;;4995097;28;20239;-89
2024/01/06 13:48:44;;;;;;;6.17;3.87;;;;;;;;;;4995969;28;20239;-89
2024/01/06 13:51:11;;;;;;;4.83;3.40;;;;;;;;;;4995459;28;20242;-89
2024/01/06 13:53:38;;;;;;;4.63;4.23;;;;;;;;;;4996002;28;20665;-89
2024/01/06 13:56:07;;;;;;;5.07;3.50;;;;;;;;;;4995507;28;20243;-88
2024/01/06 13:58:35;;;;;;;5.80;3.83;;;;;;;;;;4995425;28;20231;-89
2024/01/06 14:01:02;;;;;;;3.70;3.40;;;;;;;;;;4995583;28;20262;-88
2024/01/06 14:03:29;;;;;;;3.90;3.50;;;;;;;;;;4995736;28;20212;-88
2024/01/06 14:05:56;;;;;;;4.63;3.70;;;;;;;;;;4995301;28;20236;-89
2024/01/06 14:08:24;;;;;;;4.90;4.23;;;;;;;;;;4996133;28;20282;-89
2024/01/06 14:10:51;;;;;;;5.67;3.60;;;;;;;;;;4987494;28;20236;-89
2024/01/06 14:13:19;;;;;;;4.20;3.80;;;;;;;;;;4995249;28;20234;-88
2024/01/06 14:15:46;;;;;;;11.90;4.20;;;;;;;;;;4994639;28;20236;-88
2024/01/06 14:18:15;;;;;;;4.60;4.13;;;;;;;;;;4995145;28;20204;-89
2024/01/06 14:20:43;;;;;;;4.53;4.00;;;;;;;;;;4995001;28;20228;-89
2024/01/06 14:23:10;;;;;;;4.47;4.07;;;;;;;;;;4996081;28;20223;-89
2024/01/06 14:25:38;;;;;;;4.37;3.97;;;;;;;;;;4995083;28;20236;-88
2024/01/06 14:28:06;;;;;;;4.23;3.83;;;;;;;;;;4995178;28;20204;-87
2024/01/06 14:30:35;;;;;;;5.20;4.10;;;;;;;;;;4993828;28;20319;-85
2024/01/06 14:33:02;;;;;;;5.60;3.80;;;;;;;;;;4992976;28;20356;-83
2024/01/06 14:35:29;;;;;;;4.77;4.33;;;;;;;;;;4992419;28;20236;-83
2024/01/06 14:37:56;;;;;;;4.97;4.20;;;;;;;;;;4990906;28;20452;-83
2024/01/06 14:40:24;;;;;;;4.40;3.80;;;;;;;;;;4989424;28;20286;-83
2024/01/06 14:42:51;;;;;;;3.83;3.53;;;;;;;;;;4992875;28;20251;-84
2024/01/06 14:45:19;;;;;;;4.57;3.50;;;;;;;;;;4992501;28;20212;-83